Terminal Aerodrome Forecast
Issued by NWS Wilmington, OH

Current Version | Previous Version | Text Only | Print | Product List | Glossary Off
Versions: 1 2 3 4 5 6 7 8 9 10 11 12 13 14 15 16 17 18 19 20 21 22 23 24 25

535
FTUS41 KILN 230858 AAA
TAFCVG
TAF AMD
KCVG 230858Z 2309/2412 00000KT 6SM BR FEW035 SCT250
     FM231300 25005KT P6SM FEW050 SCT250
     FM240100 00000KT P6SM SCT250=

USA.gov is the U.S. government's official web portal to all federal, state and local government web resources and services.